Time;durP1;ratioP1;P1;durP2;ratioP2;P2;SDS_P1;SDS_P2;PMS_P1;PMS_P2;Temp;Humidity;BMP_temperature;BMP_pressure;BME280_temperature;BME280_humidity;BME280_pressure;Samples;Min_cycle;Max_cycle;Signal;HPM_P1;HPM_P2
2023/07/25 00:02:43;;;;;;;5.35;2.63;;;;;;;;;;5013458;28;20464;-73
2023/07/25 00:05:28;;;;;;;4.65;2.70;;;;;;;;;;5031076;28;20039;-73
2023/07/25 00:08:13;;;;;;;4.70;2.60;;;;;;;;;;5019357;28;20211;-72
2023/07/25 00:10:59;;;;;;;6.93;2.30;;;;;;;;;;5033512;28;20045;-73
2023/07/25 00:13:44;;;;;;;7.72;3.95;;;;;;;;;;5035737;28;20039;-73
2023/07/25 00:16:29;;;;;;;6.90;3.45;;;;;;;;;;5030226;28;20029;-80
2023/07/25 00:19:15;;;;;;;3.00;2.40;;;;;;;;;;5025720;28;20049;-74
2023/07/25 00:22:00;;;;;;;3.92;2.40;;;;;;;;;;5033770;28;20037;-73
2023/07/25 00:24:45;;;;;;;5.53;2.72;;;;;;;;;;5034533;28;20029;-73
2023/07/25 00:27:31;;;;;;;4.88;3.22;;;;;;;;;;5024057;28;20412;-72
2023/07/25 00:30:16;;;;;;;3.67;2.17;;;;;;;;;;5028785;28;20076;-73
2023/07/25 00:33:01;;;;;;;4.32;2.60;;;;;;;;;;5016232;28;20093;-74
2023/07/25 00:35:51;;;;;;;4.38;2.28;;;;;;;;;;5029134;28;20033;-75
2023/07/25 00:38:36;;;;;;;8.45;3.00;;;;;;;;;;5018403;28;20491;-69
2023/07/25 00:41:21;;;;;;;5.20;2.30;;;;;;;;;;5035127;28;20033;-68
2023/07/25 00:44:06;;;;;;;4.38;2.45;;;;;;;;;;5026575;28;20048;-69
2023/07/25 00:46:51;;;;;;;7.15;2.38;;;;;;;;;;5018094;28;20487;-69
2023/07/25 00:49:37;;;;;;;3.85;2.33;;;;;;;;;;5021401;28;20037;-69
2023/07/25 00:52:23;;;;;;;4.00;2.28;;;;;;;;;;5009921;28;20017;-76
2023/07/25 00:55:08;;;;;;;5.30;2.72;;;;;;;;;;5018249;28;20032;-71
2023/07/25 00:57:54;;;;;;;5.57;2.72;;;;;;;;;;5034677;28;20035;-72
2023/07/25 01:00:39;;;;;;;7.22;2.92;;;;;;;;;;5034296;28;20123;-71
2023/07/25 01:03:24;;;;;;;3.53;2.28;;;;;;;;;;5032569;28;21313;-71
2023/07/25 01:06:13;;;;;;;3.92;2.47;;;;;;;;;;5031465;28;20037;-70
2023/07/25 01:08:58;;;;;;;3.95;2.55;;;;;;;;;;5030880;28;20047;-71
2023/07/25 01:11:44;;;;;;;4.63;2.85;;;;;;;;;;5019961;28;20045;-73
2023/07/25 01:14:30;;;;;;;3.45;2.50;;;;;;;;;;5033012;28;20427;-74
2023/07/25 01:17:18;;;;;;;7.38;3.00;;;;;;;;;;5012895;28;20064;-74
2023/07/25 01:20:05;;;;;;;4.68;2.72;;;;;;;;;;5021146;28;20039;-75
2023/07/25 01:22:50;;;;;;;5.30;2.60;;;;;;;;;;5034116;28;20037;-74
2023/07/25 01:25:36;;;;;;;3.47;2.28;;;;;;;;;;5033269;28;20020;-75
2023/07/25 01:28:21;;;;;;;6.03;2.47;;;;;;;;;;5034185;28;20071;-73
2023/07/25 01:31:06;;;;;;;4.95;2.90;;;;;;;;;;5034699;28;20041;-74
2023/07/25 01:33:52;;;;;;;4.70;2.20;;;;;;;;;;5018748;28;20475;-69
2023/07/25 01:36:37;;;;;;;4.68;2.40;;;;;;;;;;5023816;28;20068;-70
2023/07/25 01:39:22;;;;;;;4.72;2.38;;;;;;;;;;5031920;28;20024;-68
2023/07/25 01:42:07;;;;;;;5.95;2.80;;;;;;;;;;5027645;28;20415;-69
2023/07/25 01:44:53;;;;;;;6.53;2.70;;;;;;;;;;5033093;28;20651;-69
2023/07/25 01:47:38;;;;;;;4.15;2.38;;;;;;;;;;5034252;28;20028;-72
2023/07/25 01:50:23;;;;;;;7.80;2.50;;;;;;;;;;5034217;28;20388;-69
2023/07/25 01:53:08;;;;;;;3.58;2.25;;;;;;;;;;5031995;28;20040;-69
2023/07/25 01:55:54;;;;;;;5.30;2.60;;;;;;;;;;5009053;28;20037;-69
2023/07/25 01:58:39;;;;;;;9.02;2.65;;;;;;;;;;5020156;28;20661;-68
2023/07/25 02:01:24;;;;;;;5.60;2.83;;;;;;;;;;5033366;28;20392;-68
2023/07/25 02:04:09;;;;;;;5.90;3.10;;;;;;;;;;5025945;28;20037;-68
2023/07/25 02:06:54;;;;;;;18.38;3.40;;;;;;;;;;5028093;28;20086;-73
2023/07/25 02:09:40;;;;;;;4.22;2.75;;;;;;;;;;5028373;28;20071;-72
2023/07/25 02:12:25;;;;;;;4.28;2.80;;;;;;;;;;5032247;28;20055;-72
2023/07/25 02:15:11;;;;;;;4.28;2.80;;;;;;;;;;5026303;28;20488;-71
2023/07/25 02:17:56;;;;;;;4.75;2.65;;;;;;;;;;5031933;28;20149;-71
2023/07/25 02:20:41;;;;;;;4.63;2.83;;;;;;;;;;5033367;28;20079;-70
2023/07/25 02:23:27;;;;;;;6.40;2.67;;;;;;;;;;5032712;28;20375;-71
2023/07/25 02:26:12;;;;;;;5.40;2.55;;;;;;;;;;5031858;28;20036;-75
2023/07/25 02:28:57;;;;;;;3.90;2.50;;;;;;;;;;5032462;28;20467;-69
2023/07/25 02:31:42;;;;;;;6.57;2.58;;;;;;;;;;5017424;28;20035;-68
2023/07/25 02:34:28;;;;;;;5.00;2.38;;;;;;;;;;5031950;28;20486;-69
2023/07/25 02:37:13;;;;;;;8.45;2.50;;;;;;;;;;5032908;28;20033;-68
2023/07/25 02:39:58;;;;;;;6.80;2.35;;;;;;;;;;5015311;28;20029;-68
2023/07/25 02:42:43;;;;;;;3.47;2.70;;;;;;;;;;5031735;28;20032;-76
2023/07/25 02:45:28;;;;;;;5.68;2.67;;;;;;;;;;5025587;28;20099;-74
2023/07/25 02:48:14;;;;;;;5.53;2.47;;;;;;;;;;5038307;28;20033;-75
2023/07/25 02:50:59;;;;;;;4.90;2.60;;;;;;;;;;5014307;28;20032;-75
2023/07/25 02:53:44;;;;;;;4.03;2.30;;;;;;;;;;5025376;28;20376;-75
2023/07/25 02:56:29;;;;;;;5.68;2.55;;;;;;;;;;5016479;28;20025;-75
2023/07/25 02:59:15;;;;;;;4.53;2.25;;;;;;;;;;5031046;28;20086;-75
2023/07/25 03:02:00;;;;;;;4.78;2.63;;;;;;;;;;5026911;28;20068;-75
2023/07/25 03:04:45;;;;;;;6.13;2.47;;;;;;;;;;5030449;28;20025;-76
2023/07/25 03:07:30;;;;;;;6.13;2.83;;;;;;;;;;5025687;28;20033;-72
2023/07/25 03:10:15;;;;;;;4.55;2.63;;;;;;;;;;5012469;28;20029;-73
2023/07/25 03:13:01;;;;;;;5.85;2.30;;;;;;;;;;5018182;28;20976;-72
2023/07/25 03:15:46;;;;;;;3.58;2.25;;;;;;;;;;5016305;28;20411;-74
2023/07/25 03:18:31;;;;;;;4.30;2.58;;;;;;;;;;5032717;28;20119;-76
2023/07/25 03:21:16;;;;;;;3.92;2.45;;;;;;;;;;5030655;28;20040;-68
2023/07/25 03:24:02;;;;;;;6.57;2.92;;;;;;;;;;5031026;28;20039;-73
2023/07/25 03:26:47;;;;;;;5.10;2.90;;;;;;;;;;5031921;28;20044;-72
2023/07/25 03:29:32;;;;;;;3.60;2.00;;;;;;;;;;5031888;28;20031;-73
2023/07/25 03:32:17;;;;;;;5.22;2.25;;;;;;;;;;5025856;28;20735;-75
2023/07/25 03:35:03;;;;;;;3.83;2.67;;;;;;;;;;5031538;28;20049;-75
2023/07/25 03:37:48;;;;;;;3.95;2.42;;;;;;;;;;5023972;28;20434;-72
2023/07/25 03:40:33;;;;;;;4.72;2.83;;;;;;;;;;5023953;28;20147;-80
2023/07/25 03:43:20;;;;;;;4.68;3.20;;;;;;;;;;5032919;28;20029;-74
2023/07/25 03:46:05;;;;;;;5.20;2.55;;;;;;;;;;5036538;28;20239;-75
2023/07/25 03:48:50;;;;;;;7.32;2.97;;;;;;;;;;5027420;28;20519;-73
2023/07/25 03:51:36;;;;;;;4.10;2.80;;;;;;;;;;5034170;28;20054;-74
2023/07/25 03:54:23;;;;;;;4.10;2.80;;;;;;;;;;5032485;28;20459;-75
2023/07/25 03:57:09;;;;;;;4.95;2.75;;;;;;;;;;5028345;28;20056;-69
2023/07/25 03:59:54;;;;;;;4.13;2.50;;;;;;;;;;5034492;28;20173;-77
2023/07/25 04:02:39;;;;;;;4.55;2.45;;;;;;;;;;5033443;28;20028;-80
2023/07/25 04:05:24;;;;;;;3.97;2.45;;;;;;;;;;5029499;28;20071;-79
2023/07/25 04:08:09;;;;;;;4.32;2.25;;;;;;;;;;5034086;28;20028;-79
2023/07/25 04:10:55;;;;;;;4.00;2.47;;;;;;;;;;5035113;28;20032;-79
2023/07/25 04:13:40;;;;;;;3.97;2.50;;;;;;;;;;5029040;28;20025;-79
2023/07/25 04:16:25;;;;;;;3.58;2.30;;;;;;;;;;5035592;28;20399;-72
2023/07/25 04:19:11;;;;;;;5.65;2.78;;;;;;;;;;5030674;28;20040;-74
2023/07/25 04:21:56;;;;;;;4.68;2.88;;;;;;;;;;5025978;28;20028;-75
2023/07/25 04:24:41;;;;;;;4.82;2.45;;;;;;;;;;5019020;28;20021;-75
2023/07/25 04:27:27;;;;;;;5.35;2.85;;;;;;;;;;5035604;28;20519;-76
2023/07/25 04:30:12;;;;;;;5.35;3.17;;;;;;;;;;5032616;28;20037;-76
2023/07/25 04:32:57;;;;;;;4.95;3.38;;;;;;;;;;5030906;28;20037;-73
2023/07/25 04:35:45;;;;;;;4.80;2.67;;;;;;;;;;5035673;28;20068;-72
2023/07/25 04:38:30;;;;;;;5.07;2.70;;;;;;;;;;5020946;28;20124;-76
2023/07/25 04:41:15;;;;;;;4.43;2.70;;;;;;;;;;5026878;28;20471;-75
2023/07/25 04:44:00;;;;;;;4.88;2.50;;;;;;;;;;5033522;28;20040;-75
2023/07/25 04:46:45;;;;;;;4.38;2.72;;;;;;;;;;5029595;28;20120;-76
2023/07/25 04:49:31;;;;;;;6.70;2.67;;;;;;;;;;5025249;28;20040;-74
2023/07/25 04:52:16;;;;;;;4.93;2.88;;;;;;;;;;5013460;28;20033;-73
2023/07/25 04:55:01;;;;;;;3.85;2.70;;;;;;;;;;5033478;28;20040;-74
2023/07/25 04:57:48;;;;;;;5.07;2.65;;;;;;;;;;5032694;28;20109;-74
2023/07/25 05:00:33;;;;;;;3.78;2.70;;;;;;;;;;5031649;28;20029;-74
2023/07/25 05:03:19;;;;;;;3.70;2.60;;;;;;;;;;5015169;28;20454;-75
2023/07/25 05:06:04;;;;;;;6.00;2.85;;;;;;;;;;5031371;28;20041;-73
2023/07/25 05:08:49;;;;;;;6.18;3.20;;;;;;;;;;5029402;28;20400;-72
2023/07/25 05:11:34;;;;;;;6.18;2.60;;;;;;;;;;5033919;28;20106;-73
2023/07/25 05:14:20;;;;;;;5.15;2.45;;;;;;;;;;5032758;28;20799;-70
2023/07/25 05:17:05;;;;;;;6.20;2.92;;;;;;;;;;5026402;28;20110;-70
2023/07/25 05:19:50;;;;;;;4.82;2.63;;;;;;;;;;5032832;28;20040;-69
2023/07/25 05:22:36;;;;;;;8.95;3.40;;;;;;;;;;5016772;28;20606;-68
2023/07/25 05:25:21;;;;;;;6.88;2.72;;;;;;;;;;5009236;28;20039;-68
2023/07/25 05:28:06;;;;;;;9.52;3.33;;;;;;;;;;5021485;28;20033;-76
2023/07/25 05:30:51;;;;;;;5.43;2.80;;;;;;;;;;5032037;28;20037;-71
2023/07/25 05:33:36;;;;;;;4.55;2.50;;;;;;;;;;5027388;28;20086;-73
2023/07/25 05:36:22;;;;;;;5.47;3.25;;;;;;;;;;5030439;28;20127;-73
2023/07/25 05:39:07;;;;;;;7.30;2.88;;;;;;;;;;5031471;28;20045;-72
2023/07/25 05:41:52;;;;;;;5.60;2.78;;;;;;;;;;5033570;28;20025;-71
2023/07/25 05:44:37;;;;;;;5.72;3.55;;;;;;;;;;5028777;28;20040;-74
2023/07/25 05:47:23;;;;;;;6.10;3.20;;;;;;;;;;5018796;28;20029;-73
2023/07/25 05:50:08;;;;;;;5.35;3.17;;;;;;;;;;5034311;28;20037;-73
2023/07/25 05:52:53;;;;;;;6.47;3.42;;;;;;;;;;5020541;28;20037;-72
2023/07/25 05:55:39;;;;;;;5.70;3.42;;;;;;;;;;5031551;28;20029;-73
2023/07/25 05:58:24;;;;;;;7.32;3.47;;;;;;;;;;5017497;28;20028;-75
2023/07/25 06:01:09;;;;;;;7.05;3.20;;;;;;;;;;5026168;28;20026;-72
2023/07/25 06:03:55;;;;;;;7.88;3.42;;;;;;;;;;5020851;28;20040;-72
2023/07/25 06:06:40;;;;;;;8.38;4.32;;;;;;;;;;5028656;28;20048;-74
2023/07/25 06:09:25;;;;;;;7.47;3.90;;;;;;;;;;5011301;28;20499;-72
2023/07/25 06:12:10;;;;;;;7.40;3.80;;;;;;;;;;5034327;28;20048;-71
2023/07/25 06:14:56;;;;;;;8.20;3.92;;;;;;;;;;5031498;28;20067;-72
2023/07/25 06:17:41;;;;;;;7.60;3.70;;;;;;;;;;5022362;28;20087;-72
2023/07/25 06:20:26;;;;;;;8.05;3.78;;;;;;;;;;5032576;28;20036;-71
2023/07/25 06:23:11;;;;;;;7.97;3.90;;;;;;;;;;5020658;28;20098;-78
2023/07/25 06:25:57;;;;;;;10.70;3.92;;;;;;;;;;5033143;28;20041;-69
2023/07/25 06:28:42;;;;;;;5.85;3.33;;;;;;;;;;5034055;28;20031;-72
2023/07/25 06:31:28;;;;;;;8.80;4.07;;;;;;;;;;5023397;28;20045;-74
2023/07/25 06:34:13;;;;;;;7.55;3.28;;;;;;;;;;5031265;28;20040;-72
2023/07/25 06:36:58;;;;;;;7.10;3.42;;;;;;;;;;5019710;28;20033;-72
2023/07/25 06:39:43;;;;;;;7.45;4.40;;;;;;;;;;5022536;28;20533;-71
2023/07/25 06:42:29;;;;;;;7.82;3.30;;;;;;;;;;5028439;28;20017;-72
2023/07/25 06:45:14;;;;;;;6.35;3.42;;;;;;;;;;5019204;28;20032;-75
2023/07/25 06:47:59;;;;;;;8.07;3.58;;;;;;;;;;5033952;28;20040;-74
2023/07/25 06:50:45;;;;;;;10.57;4.53;;;;;;;;;;5022659;28;20507;-75
2023/07/25 06:53:30;;;;;;;10.27;3.80;;;;;;;;;;5027444;28;20431;-76
2023/07/25 06:56:16;;;;;;;7.68;3.38;;;;;;;;;;5029726;28;20154;-77
2023/07/25 06:59:01;;;;;;;9.10;3.22;;;;;;;;;;5022758;28;20049;-76
2023/07/25 07:01:46;;;;;;;5.93;3.53;;;;;;;;;;5032972;28;20036;-76
2023/07/25 07:04:31;;;;;;;11.18;3.92;;;;;;;;;;5034816;28;20195;-75
2023/07/25 07:07:16;;;;;;;6.10;3.75;;;;;;;;;;5021266;28;20033;-79
2023/07/25 07:10:02;;;;;;;8.88;4.10;;;;;;;;;;5033915;28;20029;-79
2023/07/25 07:12:48;;;;;;;5.40;2.97;;;;;;;;;;5023927;28;20463;-78
2023/07/25 07:15:33;;;;;;;5.38;3.15;;;;;;;;;;5038330;28;20037;-77
2023/07/25 07:18:18;;;;;;;6.70;3.63;;;;;;;;;;5040349;28;20032;-73
2023/07/25 07:21:05;;;;;;;6.05;3.20;;;;;;;;;;5038190;28;20478;-70
2023/07/25 07:23:50;;;;;;;7.05;3.47;;;;;;;;;;5037876;28;20123;-77
2023/07/25 07:26:35;;;;;;;6.07;3.67;;;;;;;;;;5025418;28;20087;-77
2023/07/25 07:29:21;;;;;;;10.30;4.10;;;;;;;;;;5026470;28;20107;-75
2023/07/25 07:32:06;;;;;;;5.95;3.53;;;;;;;;;;5039824;28;20423;-75
2023/07/25 07:34:51;;;;;;;7.43;3.58;;;;;;;;;;5033551;28;20512;-75
2023/07/25 07:37:37;;;;;;;8.10;4.20;;;;;;;;;;5029886;28;20198;-67
2023/07/25 07:40:23;;;;;;;4.88;2.92;;;;;;;;;;5037619;28;20106;-75
2023/07/25 07:43:08;;;;;;;5.53;3.10;;;;;;;;;;5041599;28;20101;-74
2023/07/25 07:45:53;;;;;;;7.97;4.22;;;;;;;;;;5031971;28;20076;-74
2023/07/25 07:48:40;;;;;;;5.72;3.72;;;;;;;;;;5027312;28;20029;-75
2023/07/25 07:51:26;;;;;;;6.75;3.13;;;;;;;;;;5036818;28;20425;-75
2023/07/25 07:54:11;;;;;;;6.57;3.13;;;;;;;;;;5031397;28;20037;-74
2023/07/25 07:56:56;;;;;;;5.88;3.03;;;;;;;;;;5033216;28;20503;-75
2023/07/25 07:59:42;;;;;;;3.22;2.05;;;;;;;;;;5032490;28;20130;-75
2023/07/25 08:02:27;;;;;;;5.20;1.95;;;;;;;;;;5035970;28;20119;-74
2023/07/25 08:05:13;;;;;;;3.97;2.40;;;;;;;;;;5026888;28;20192;-75
2023/07/25 08:07:58;;;;;;;4.57;2.70;;;;;;;;;;5027042;28;20040;-75
2023/07/25 08:10:43;;;;;;;4.95;2.30;;;;;;;;;;5020086;28;20380;-74
2023/07/25 08:13:28;;;;;;;3.80;1.92;;;;;;;;;;5039536;28;20029;-69
2023/07/25 08:16:14;;;;;;;4.70;2.42;;;;;;;;;;5032697;28;20522;-68
2023/07/25 08:18:59;;;;;;;6.72;2.25;;;;;;;;;;5038127;28;20036;-72
2023/07/25 08:21:44;;;;;;;4.45;2.83;;;;;;;;;;5025836;28;20040;-72
2023/07/25 08:24:29;;;;;;;5.35;2.63;;;;;;;;;;5022508;28;20021;-73
2023/07/25 08:27:14;;;;;;;4.47;2.33;;;;;;;;;;5018235;28;20559;-72
2023/07/25 08:30:00;;;;;;;4.07;1.95;;;;;;;;;;5035417;28;20140;-71
2023/07/25 08:32:45;;;;;;;4.85;2.72;;;;;;;;;;5021476;28;20476;-76
2023/07/25 08:35:30;;;;;;;4.53;2.10;;;;;;;;;;5035570;28;20079;-69
2023/07/25 08:38:15;;;;;;;3.97;1.75;;;;;;;;;;5014437;28;20033;-71
2023/07/25 08:41:05;;;;;;;4.45;2.00;;;;;;;;;;5033019;28;20048;-69
2023/07/25 08:43:52;;;;;;;4.43;2.45;;;;;;;;;;5021391;28;20039;-69
2023/07/25 08:46:40;;;;;;;3.85;1.98;;;;;;;;;;5029713;28;20061;-72
2023/07/25 08:49:29;;;;;;;6.50;2.50;;;;;;;;;;5033005;28;20025;-70
2023/07/25 08:52:16;;;;;;;4.60;2.10;;;;;;;;;;5024884;28;20040;-70
2023/07/25 08:55:01;;;;;;;2.58;1.98;;;;;;;;;;5034426;28;20052;-75
2023/07/25 08:57:48;;;;;;;3.50;2.10;;;;;;;;;;5018656;28;20049;-73
2023/07/25 09:00:34;;;;;;;5.97;3.08;;;;;;;;;;5033413;28;20041;-75
2023/07/25 09:03:19;;;;;;;7.55;2.75;;;;;;;;;;5035292;28;20029;-75
2023/07/25 09:06:05;;;;;;;4.50;2.13;;;;;;;;;;5031309;28;20048;-76
2023/07/25 09:08:50;;;;;;;3.25;1.80;;;;;;;;;;5034559;28;20158;-71
2023/07/25 09:11:36;;;;;;;2.50;1.75;;;;;;;;;;5032074;28;20116;-75
2023/07/25 09:14:21;;;;;;;6.75;2.17;;;;;;;;;;5012484;28;20040;-74
2023/07/25 09:17:06;;;;;;;5.60;2.20;;;;;;;;;;5033166;28;20084;-75
2023/07/25 09:19:52;;;;;;;7.15;2.47;;;;;;;;;;5015347;28;20108;-75
2023/07/25 09:22:37;;;;;;;4.13;2.08;;;;;;;;;;5025823;28;20029;-74
2023/07/25 09:25:25;;;;;;;3.72;1.80;;;;;;;;;;5029417;28;20071;-74
2023/07/25 09:28:10;;;;;;;2.42;1.73;;;;;;;;;;5033685;28;20112;-69
2023/07/25 09:30:55;;;;;;;2.83;1.23;;;;;;;;;;5019614;28;20025;-70
2023/07/25 09:33:41;;;;;;;5.43;1.80;;;;;;;;;;5026460;28;20068;-69
2023/07/25 09:36:28;;;;;;;4.03;1.75;;;;;;;;;;5028650;28;20052;-69
2023/07/25 09:39:14;;;;;;;4.25;1.83;;;;;;;;;;5033983;28;20033;-71
2023/07/25 09:42:00;;;;;;;5.43;2.20;;;;;;;;;;5030017;28;20033;-71
2023/07/25 09:44:49;;;;;;;3.10;1.88;;;;;;;;;;5026386;28;20033;-71
2023/07/25 09:47:35;;;;;;;3.58;2.00;;;;;;;;;;5031860;28;20041;-74
2023/07/25 09:50:25;;;;;;;5.28;1.75;;;;;;;;;;5001501;28;20045;-72
2023/07/25 09:53:19;;;;;;;3.03;1.48;;;;;;;;;;5014627;28;20037;-72
2023/07/25 09:56:05;;;;;;;5.32;1.90;;;;;;;;;;5012080;28;20094;-72
2023/07/25 09:58:51;;;;;;;7.25;2.13;;;;;;;;;;5033830;28;20017;-71
2023/07/25 10:01:38;;;;;;;3.45;1.88;;;;;;;;;;5033720;28;20031;-72
2023/07/25 10:04:24;;;;;;;2.80;1.55;;;;;;;;;;5023162;28;20087;-71
2023/07/25 10:07:09;;;;;;;3.45;2.20;;;;;;;;;;5032910;28;20080;-71
2023/07/25 10:09:56;;;;;;;3.17;1.58;;;;;;;;;;5031011;28;20036;-70
2023/07/25 10:12:41;;;;;;;2.72;1.58;;;;;;;;;;5023552;28;20100;-68
2023/07/25 10:15:26;;;;;;;3.35;1.38;;;;;;;;;;5027096;28;20025;-70
2023/07/25 10:18:20;;;;;;;2.95;1.73;;;;;;;;;;5031601;28;20052;-70
2023/07/25 10:21:07;;;;;;;3.33;1.40;;;;;;;;;;5010619;28;20435;-69
2023/07/25 10:23:57;;;;;;;2.83;1.33;;;;;;;;;;5024721;28;20048;-75
2023/07/25 10:26:55;;;;;;;3.70;2.05;;;;;;;;;;5029316;28;20036;-74
2023/07/25 10:29:42;;;;;;;2.78;1.33;;;;;;;;;;5009494;28;20021;-74
2023/07/25 10:32:44;;;;;;;3.00;1.52;;;;;;;;;;5030086;28;20071;-74
2023/07/25 10:35:44;;;;;;;2.88;1.48;;;;;;;;;;5021558;28;20056;-76
2023/07/25 10:38:34;;;;;;;1.73;1.48;;;;;;;;;;5030172;28;20021;-75
2023/07/25 10:41:20;;;;;;;;;;;;;;;;;;5034035;28;20067;-74
2023/07/25 10:44:05;;;;;;;3.60;1.63;;;;;;;;;;5021981;28;19924;-74
2023/07/25 10:46:50;;;;;;;2.17;1.30;;;;;;;;;;5021850;28;20035;-74
2023/07/25 10:49:53;;;;;;;4.90;1.77;;;;;;;;;;5032350;28;20502;-73
2023/07/25 10:52:42;;;;;;;5.45;1.60;;;;;;;;;;5033872;28;20112;-73
2023/07/25 10:55:27;;;;;;;2.75;1.50;;;;;;;;;;5026160;28;20029;-72
2023/07/25 10:58:12;;;;;;;1.92;1.10;;;;;;;;;;5015928;28;20040;-73
2023/07/25 11:00:58;;;;;;;2.10;1.33;;;;;;;;;;5025052;28;20040;-76
2023/07/25 11:03:44;;;;;;;3.97;2.03;;;;;;;;;;5019579;28;20021;-72
2023/07/25 11:06:35;;;;;;;2.38;1.58;;;;;;;;;;5033551;28;20446;-70
2023/07/25 11:09:21;;;;;;;2.15;1.42;;;;;;;;;;5031725;28;20033;-70
2023/07/25 11:12:07;;;;;;;2.20;1.40;;;;;;;;;;5025876;28;20525;-71
2023/07/25 11:14:54;;;;;;;2.22;1.15;;;;;;;;;;5029916;28;20052;-71
2023/07/25 11:17:40;;;;;;;1.35;1.20;;;;;;;;;;5033001;28;20025;-69
2023/07/25 11:20:25;;;;;;;2.63;1.30;;;;;;;;;;5021644;28;20032;-71
2023/07/25 11:23:11;;;;;;;2.75;1.40;;;;;;;;;;5023840;28;20392;-76
2023/07/25 11:26:00;;;;;;;5.78;1.95;;;;;;;;;;5018367;28;20108;-76
2023/07/25 11:28:46;;;;;;;1.77;1.30;;;;;;;;;;5027472;28;20036;-75
2023/07/25 11:31:31;;;;;;;2.22;1.10;;;;;;;;;;5023226;28;20338;-75
2023/07/25 11:34:17;;;;;;;2.50;1.05;;;;;;;;;;5032449;28;20040;-76
2023/07/25 11:37:11;;;;;;;2.03;0.93;;;;;;;;;;5032882;28;20021;-73
2023/07/25 11:40:09;;;;;;;2.72;1.33;;;;;;;;;;5024075;28;20079;-75
2023/07/25 11:42:54;;;;;;;3.47;1.20;;;;;;;;;;5027487;28;20516;-75
2023/07/25 11:45:39;;;;;;;1.77;1.02;;;;;;;;;;5034412;28;20029;-75
2023/07/25 11:48:25;;;;;;;2.35;0.85;;;;;;;;;;5018319;28;20456;-75
2023/07/25 11:51:10;;;;;;;1.23;1.05;;;;;;;;;;5034768;28;20048;-75
2023/07/25 11:53:55;;;;;;;2.72;1.38;;;;;;;;;;5022261;28;20249;-74
2023/07/25 11:56:41;;;;;;;1.15;0.90;;;;;;;;;;5033530;28;20035;-71
2023/07/25 11:59:27;;;;;;;2.08;1.17;;;;;;;;;;5020686;28;20498;-70
2023/07/25 12:02:12;;;;;;;4.78;1.25;;;;;;;;;;5032819;28;20089;-69
2023/07/25 12:04:57;;;;;;;2.33;1.10;;;;;;;;;;5035886;28;20376;-70
2023/07/25 12:07:49;;;;;;;2.63;1.02;;;;;;;;;;5037835;28;20036;-69
2023/07/25 12:10:35;;;;;;;1.95;1.25;;;;;;;;;;5033195;28;20084;-69
2023/07/25 12:13:20;;;;;;;1.98;1.20;;;;;;;;;;5032753;28;20643;-69
2023/07/25 12:16:05;;;;;;;2.00;1.10;;;;;;;;;;5037419;28;20072;-77
2023/07/25 12:18:51;;;;;;;2.40;1.00;;;;;;;;;;5036572;28;20040;-74
2023/07/25 12:21:38;;;;;;;1.30;1.00;;;;;;;;;;5017032;28;20060;-77
2023/07/25 12:24:23;;;;;;;1.13;1.00;;;;;;;;;;5037008;28;20065;-78
2023/07/25 12:27:16;;;;;;;2.03;0.98;;;;;;;;;;5036633;28;20380;-76
2023/07/25 12:30:02;;;;;;;2.63;0.93;;;;;;;;;;5035686;28;20024;-76
2023/07/25 12:32:48;;;;;;;3.33;1.23;;;;;;;;;;5035181;28;20059;-73
2023/07/25 12:35:33;;;;;;;3.25;1.38;;;;;;;;;;5011843;28;20025;-71
2023/07/25 12:38:18;;;;;;;2.72;1.20;;;;;;;;;;5020591;28;20060;-71
2023/07/25 12:41:03;;;;;;;1.50;1.10;;;;;;;;;;5028279;28;20380;-71
2023/07/25 12:43:49;;;;;;;1.10;1.00;;;;;;;;;;5035270;28;20036;-74
2023/07/25 12:46:34;;;;;;;2.78;1.48;;;;;;;;;;5031721;28;20038;-73
2023/07/25 12:49:19;;;;;;;1.45;1.15;;;;;;;;;;5028802;28;20033;-73
2023/07/25 12:52:05;;;;;;;1.95;1.00;;;;;;;;;;5036175;28;20025;-68
2023/07/25 12:54:50;;;;;;;1.55;1.20;;;;;;;;;;5030545;28;20033;-73
2023/07/25 12:57:35;;;;;;;2.50;1.40;;;;;;;;;;5031186;28;20036;-72
2023/07/25 13:00:20;;;;;;;1.77;1.02;;;;;;;;;;5034549;28;20025;-73
2023/07/25 13:03:07;;;;;;;6.90;1.20;;;;;;;;;;5029685;28;20494;-72
2023/07/25 13:05:53;;;;;;;1.90;1.10;;;;;;;;;;5016800;28;20044;-73
2023/07/25 13:08:38;;;;;;;1.48;1.02;;;;;;;;;;5017460;28;20075;-69
2023/07/25 13:11:24;;;;;;;1.48;1.05;;;;;;;;;;5034587;28;20048;-68
2023/07/25 13:14:09;;;;;;;1.00;0.90;;;;;;;;;;5035006;28;20037;-69
2023/07/25 13:16:54;;;;;;;1.60;0.90;;;;;;;;;;5020958;28;20044;-69
2023/07/25 13:19:39;;;;;;;0.73;0.73;;;;;;;;;;5023666;28;20025;-69
2023/07/25 13:22:24;;;;;;;1.95;1.10;;;;;;;;;;5034516;28;20063;-69
2023/07/25 13:25:11;;;;;;;2.83;1.25;;;;;;;;;;5029180;28;20043;-68
2023/07/25 13:27:56;;;;;;;2.25;1.00;;;;;;;;;;5010241;28;20063;-68
2023/07/25 13:30:42;;;;;;;1.98;1.23;;;;;;;;;;5016668;28;20283;-72
2023/07/25 13:33:27;;;;;;;2.60;1.00;;;;;;;;;;5012955;28;20051;-71
2023/07/25 13:36:12;;;;;;;2.15;1.00;;;;;;;;;;5022283;28;20436;-71
2023/07/25 13:38:57;;;;;;;2.03;1.13;;;;;;;;;;5030208;28;20155;-72
2023/07/25 13:41:43;;;;;;;2.67;1.00;;;;;;;;;;5026296;28;20116;-71
2023/07/25 13:44:28;;;;;;;1.02;0.93;;;;;;;;;;5022735;28;20086;-72
2023/07/25 13:47:13;;;;;;;1.52;1.02;;;;;;;;;;5022271;28;20129;-75
2023/07/25 13:50:00;;;;;;;6.72;2.08;;;;;;;;;;5022450;28;20047;-74
2023/07/25 13:52:45;;;;;;;2.03;1.20;;;;;;;;;;5022617;28;20052;-75
2023/07/25 13:55:30;;;;;;;1.27;0.90;;;;;;;;;;5025166;28;20040;-74
2023/07/25 13:58:16;;;;;;;1.60;1.27;;;;;;;;;;5032800;28;20021;-74
2023/07/25 14:01:01;;;;;;;2.28;1.27;;;;;;;;;;5037330;28;20040;-73
2023/07/25 14:03:47;;;;;;;2.00;1.27;;;;;;;;;;5036509;28;20041;-71
2023/07/25 14:06:32;;;;;;;1.33;1.05;;;;;;;;;;5035478;28;20388;-75
2023/07/25 14:09:18;;;;;;;1.42;1.10;;;;;;;;;;5022807;28;20037;-75
2023/07/25 14:12:04;;;;;;;2.45;1.63;;;;;;;;;;5032823;28;20097;-74
2023/07/25 14:14:49;;;;;;;1.75;1.25;;;;;;;;;;5030652;28;20116;-76
2023/07/25 14:17:35;;;;;;;1.98;1.30;;;;;;;;;;5024690;28;20499;-74
2023/07/25 14:20:20;;;;;;;4.95;1.77;;;;;;;;;;5034666;28;20418;-75
2023/07/25 14:23:05;;;;;;;1.30;1.17;;;;;;;;;;5029625;28;20025;-71
2023/07/25 14:25:50;;;;;;;1.25;1.10;;;;;;;;;;5027245;28;20430;-72
2023/07/25 14:28:36;;;;;;;2.15;1.13;;;;;;;;;;5028021;28;20033;-73
2023/07/25 14:31:21;;;;;;;1.50;1.23;;;;;;;;;;5021125;28;20169;-71
2023/07/25 14:34:06;;;;;;;0.70;0.70;;;;;;;;;;5030434;28;20144;-72
2023/07/25 14:36:51;;;;;;;0.95;0.85;;;;;;;;;;5033906;28;20098;-74
2023/07/25 14:39:37;;;;;;;3.00;1.17;;;;;;;;;;5024490;28;20467;-73
2023/07/25 14:42:22;;;;;;;1.38;0.88;;;;;;;;;;5041611;28;20025;-72
2023/07/25 14:45:07;;;;;;;1.08;0.80;;;;;;;;;;5034817;28;20025;-76
2023/07/25 14:47:54;;;;;;;0.70;0.70;;;;;;;;;;5026610;28;20033;-75
2023/07/25 14:50:40;;;;;;;1.10;1.00;;;;;;;;;;5030630;28;20049;-75
2023/07/25 14:53:26;;;;;;;2.67;0.98;;;;;;;;;;5008427;28;20502;-76
2023/07/25 14:56:11;;;;;;;2.58;1.13;;;;;;;;;;5032813;28;20033;-78
2023/07/25 14:58:56;;;;;;;1.08;0.98;;;;;;;;;;5020396;28;20624;-71
2023/07/25 15:01:41;;;;;;;1.98;1.10;;;;;;;;;;5029745;28;20630;-71
2023/07/25 15:04:27;;;;;;;3.25;1.30;;;;;;;;;;5006790;28;20033;-73
2023/07/25 15:07:12;;;;;;;1.98;1.10;;;;;;;;;;5018846;28;20040;-73
2023/07/25 15:09:57;;;;;;;1.10;0.98;;;;;;;;;;5031890;28;20037;-72
2023/07/25 15:12:42;;;;;;;0.98;0.90;;;;;;;;;;5032791;28;20036;-72
2023/07/25 15:15:28;;;;;;;2.38;1.10;;;;;;;;;;5025857;28;20354;-72
2023/07/25 15:18:13;;;;;;;1.17;1.00;;;;;;;;;;5038800;28;20078;-74
2023/07/25 15:20:58;;;;;;;1.88;1.20;;;;;;;;;;5018131;28;20037;-77
2023/07/25 15:23:43;;;;;;;1.58;0.98;;;;;;;;;;5031989;28;20029;-75
2023/07/25 15:26:28;;;;;;;1.00;0.90;;;;;;;;;;5013850;28;20044;-74
2023/07/25 15:29:14;;;;;;;3.40;1.42;;;;;;;;;;5024389;28;20288;-78
2023/07/25 15:32:01;;;;;;;2.10;1.38;;;;;;;;;;5031732;28;20029;-76
2023/07/25 15:34:47;;;;;;;1.52;1.40;;;;;;;;;;5035689;28;20048;-76
2023/07/25 15:37:33;;;;;;;4.60;1.58;;;;;;;;;;5013737;28;20027;-71
2023/07/25 15:40:18;;;;;;;2.42;1.20;;;;;;;;;;5036310;28;20041;-74
2023/07/25 15:43:04;;;;;;;3.72;1.23;;;;;;;;;;5029089;28;20094;-75
2023/07/25 15:45:50;;;;;;;1.02;0.85;;;;;;;;;;5029981;28;20036;-74
2023/07/25 15:48:35;;;;;;;1.95;1.30;;;;;;;;;;5023490;28;20032;-74
2023/07/25 15:51:20;;;;;;;1.95;1.33;;;;;;;;;;5035365;28;20037;-74
2023/07/25 15:54:05;;;;;;;1.95;0.85;;;;;;;;;;5026329;28;20175;-73
2023/07/25 15:56:51;;;;;;;2.10;1.00;;;;;;;;;;5021761;28;20033;-72
2023/07/25 15:59:36;;;;;;;1.08;0.98;;;;;;;;;;5031829;28;20111;-72
2023/07/25 16:02:21;;;;;;;2.42;1.40;;;;;;;;;;5036800;28;20036;-73
2023/07/25 16:05:06;;;;;;;2.90;1.40;;;;;;;;;;5022764;28;20032;-72
2023/07/25 16:07:52;;;;;;;2.15;1.42;;;;;;;;;;5036828;28;20155;-72
2023/07/25 16:10:37;;;;;;;2.95;1.00;;;;;;;;;;5036260;28;20067;-71
2023/07/25 16:13:22;;;;;;;2.05;1.30;;;;;;;;;;5031389;28;20067;-69
2023/07/25 16:16:08;;;;;;;2.72;1.60;;;;;;;;;;5037164;28;20408;-76
2023/07/25 16:18:53;;;;;;;3.63;1.52;;;;;;;;;;5024404;28;20386;-79
2023/07/25 16:21:38;;;;;;;2.35;1.40;;;;;;;;;;5022996;28;20112;-77
2023/07/25 16:24:23;;;;;;;2.95;1.30;;;;;;;;;;5025287;28;20064;-77
2023/07/25 16:27:08;;;;;;;2.60;1.50;;;;;;;;;;5035939;28;20064;-77
2023/07/25 16:29:54;;;;;;;3.67;1.38;;;;;;;;;;5035447;28;20036;-77
2023/07/25 16:32:39;;;;;;;2.33;1.52;;;;;;;;;;5033699;28;20524;-75
2023/07/25 16:35:24;;;;;;;2.00;1.20;;;;;;;;;;5035562;28;20400;-70